createdAt,value
2019-03-31T00:01:52.629Z,11.00
2019-03-31T00:04:24.464Z,11.00
2019-03-31T00:06:54.846Z,10.90
2019-03-31T00:09:26.139Z,10.90
2019-03-31T00:11:56.472Z,10.80
2019-03-31T00:14:28.024Z,10.80
2019-03-31T00:16:58.410Z,10.80
2019-03-31T00:19:29.263Z,11.00
2019-03-31T00:22:00.171Z,11.20
2019-03-31T00:24:30.758Z,11.30
2019-03-31T00:27:02.718Z,11.40
2019-03-31T00:29:33.746Z,11.50
2019-03-31T00:32:04.178Z,11.60
2019-03-31T00:34:34.991Z,11.70
2019-03-31T00:37:07.853Z,11.80
2019-03-31T00:39:38.404Z,11.80
2019-03-31T00:42:09.221Z,11.80
2019-03-31T00:44:39.693Z,11.80
2019-03-31T00:47:10.099Z,11.90
2019-03-31T00:49:41.507Z,11.90
2019-03-31T00:52:11.858Z,12.00
2019-03-31T00:54:42.073Z,12.00
2019-03-31T00:57:12.513Z,12.10
2019-03-31T00:59:43.835Z,12.10
2019-03-31T01:02:18.164Z,12.10
2019-03-31T01:04:49.094Z,12.10
2019-03-31T01:07:19.687Z,12.10
2019-03-31T01:12:48.670Z,12.20
2019-03-31T01:15:20.822Z,12.20
2019-03-31T01:17:51.695Z,12.30
2019-03-31T01:20:22.442Z,12.30
2019-03-31T01:22:52.941Z,12.40
2019-03-31T01:25:23.294Z,12.40
2019-03-31T01:27:53.755Z,12.30
2019-03-31T01:30:24.326Z,12.30
2019-03-31T01:32:55.983Z,12.30
2019-03-31T01:35:26.332Z,12.20
2019-03-31T01:37:58.274Z,12.00
2019-03-31T01:40:28.582Z,11.90
2019-03-31T01:42:59.088Z,11.90
2019-03-31T01:45:29.652Z,11.90
2019-03-31T01:48:00.524Z,11.90
2019-03-31T01:50:31.042Z,11.90
2019-03-31T01:53:01.466Z,11.90
2019-03-31T01:55:32.185Z,11.80
2019-03-31T01:58:02.459Z,11.80
2019-03-31T02:00:40.980Z,11.80
2019-03-31T02:03:11.339Z,11.70
2019-03-31T02:05:41.799Z,11.70
2019-03-31T02:08:13.288Z,11.60
2019-03-31T02:10:43.640Z,11.60
2019-03-31T02:13:14.407Z,11.70
2019-03-31T02:15:45.385Z,11.70
2019-03-31T02:18:15.740Z,11.70
2019-03-31T02:20:46.341Z,11.70
2019-03-31T02:23:16.597Z,11.60
2019-03-31T02:25:50.699Z,11.50
2019-03-31T02:28:21.203Z,11.40
2019-03-31T02:30:51.982Z,11.40
2019-03-31T02:33:23.227Z,11.50
2019-03-31T02:35:54.152Z,11.50
2019-03-31T02:38:24.580Z,11.60
2019-03-31T02:40:55.207Z,11.70
2019-03-31T02:43:25.524Z,11.80
2019-03-31T02:45:56.409Z,11.80
2019-03-31T02:48:26.771Z,11.80
2019-03-31T02:50:57.065Z,11.80
2019-03-31T02:53:27.860Z,11.80
2019-03-31T02:55:58.229Z,11.70
2019-03-31T02:58:28.826Z,11.60
2019-03-31T03:00:59.341Z,11.60
2019-03-31T03:03:30.719Z,11.60
2019-03-31T03:06:01.143Z,11.60
2019-03-31T03:08:32.900Z,11.60
2019-03-31T03:11:03.740Z,11.70
2019-03-31T03:13:35.733Z,11.70
2019-03-31T03:16:14.153Z,11.70
2019-03-31T03:18:44.886Z,11.70
2019-03-31T03:21:15.749Z,11.70
2019-03-31T03:23:46.047Z,11.60
2019-03-31T03:26:16.496Z,11.60
2019-03-31T03:28:47.342Z,11.50
2019-03-31T03:31:18.283Z,11.50
2019-03-31T03:33:48.686Z,11.40
2019-03-31T03:36:20.106Z,11.50
2019-03-31T03:38:50.814Z,11.40
2019-03-31T03:41:21.183Z,11.40
2019-03-31T03:43:59.538Z,11.40
2019-03-31T03:46:24.175Z,11.50
2019-03-31T03:48:54.684Z,11.50
2019-03-31T03:51:25.719Z,11.50
2019-03-31T03:53:56.448Z,11.50
2019-03-31T03:56:28.998Z,11.50
2019-03-31T03:59:00.372Z,11.50
2019-03-31T04:01:32.753Z,11.50
2019-03-31T04:04:03.196Z,11.60
2019-03-31T04:06:33.745Z,11.60
2019-03-31T04:09:06.388Z,11.60
2019-03-31T04:11:37.029Z,11.70
2019-03-31T04:14:07.278Z,11.70
2019-03-31T04:16:37.683Z,11.80
2019-03-31T04:19:08.446Z,11.80
2019-03-31T04:21:38.766Z,11.80
2019-03-31T04:24:09.378Z,11.90
2019-03-31T04:26:39.709Z,11.90
2019-03-31T04:29:10.413Z,11.80
2019-03-31T04:31:40.749Z,11.70
2019-03-31T04:34:11.491Z,11.70
2019-03-31T04:36:41.813Z,11.70
2019-03-31T04:39:12.158Z,11.60
2019-03-31T04:41:42.527Z,11.60
2019-03-31T04:44:13.245Z,11.40
2019-03-31T04:46:43.735Z,11.30
2019-03-31T04:49:14.018Z,11.30
2019-03-31T04:51:45.069Z,11.40
2019-03-31T04:54:15.416Z,11.50
2019-03-31T04:56:45.786Z,11.60
2019-03-31T04:59:16.594Z,11.60
2019-03-31T05:01:47.299Z,11.70
2019-03-31T05:04:18.337Z,11.80
2019-03-31T05:06:48.670Z,11.80
2019-03-31T05:09:19.510Z,11.80
2019-03-31T05:11:50.156Z,11.90
2019-03-31T05:14:20.478Z,11.90
2019-03-31T05:16:51.064Z,11.90
2019-03-31T05:19:21.903Z,11.90
2019-03-31T05:23:17.492Z,11.90
2019-03-31T05:25:47.923Z,11.80
2019-03-31T05:28:18.326Z,11.70
2019-03-31T05:30:49.804Z,11.60
2019-03-31T05:33:20.753Z,11.60
2019-03-31T05:35:51.318Z,11.60
2019-03-31T05:38:21.655Z,11.60
2019-03-31T05:40:52.058Z,11.70
2019-03-31T05:43:22.957Z,11.70
2019-03-31T05:45:53.388Z,11.80
2019-03-31T05:48:24.195Z,11.80
2019-03-31T05:50:55.167Z,11.90
2019-03-31T05:53:25.899Z,12.00
2019-03-31T05:55:56.267Z,12.00
2019-03-31T05:58:26.616Z,12.10
2019-03-31T06:00:57.629Z,12.10
2019-03-31T06:03:28.063Z,12.10
2019-03-31T06:05:58.430Z,12.10
2019-03-31T06:08:28.770Z,12.20
2019-03-31T06:10:59.117Z,12.20
2019-03-31T06:13:30.367Z,12.30
2019-03-31T06:16:01.713Z,12.30
2019-03-31T06:18:32.428Z,12.30
2019-03-31T06:21:03.182Z,12.40
2019-03-31T06:23:34.127Z,12.40
2019-03-31T06:26:04.468Z,12.40
2019-03-31T06:28:35.082Z,12.50
2019-03-31T06:31:05.857Z,12.50
2019-03-31T06:33:36.114Z,12.50
2019-03-31T06:36:06.740Z,12.60
2019-03-31T06:38:37.434Z,12.60
2019-03-31T06:41:07.783Z,12.60
2019-03-31T06:43:38.152Z,12.60
2019-03-31T06:46:08.811Z,12.60
2019-03-31T06:48:39.521Z,12.70
2019-03-31T06:51:09.834Z,12.70
2019-03-31T06:53:40.529Z,12.70
2019-03-31T06:56:10.891Z,12.70
2019-03-31T06:58:41.422Z,12.70
2019-03-31T07:01:12.199Z,12.70
2019-03-31T07:03:43.536Z,12.80
2019-03-31T07:06:13.846Z,12.80
2019-03-31T07:08:49.161Z,12.80
2019-03-31T07:11:19.583Z,12.80
2019-03-31T07:13:50.647Z,12.90
2019-03-31T07:16:21.110Z,12.80
2019-03-31T07:18:52.464Z,12.80
2019-03-31T07:21:23.175Z,12.90
2019-03-31T07:23:53.628Z,12.90
2019-03-31T07:26:23.982Z,13.00
2019-03-31T07:28:54.758Z,13.00
2019-03-31T07:31:25.244Z,13.00
2019-03-31T07:33:55.870Z,13.00
2019-03-31T07:36:26.390Z,13.00
2019-03-31T07:38:57.832Z,13.10
2019-03-31T07:41:30.446Z,13.10
2019-03-31T07:44:01.938Z,13.10
2019-03-31T07:46:33.118Z,13.10
2019-03-31T07:49:03.644Z,13.10
2019-03-31T07:51:37.416Z,13.10
2019-03-31T07:54:07.319Z,13.10
2019-03-31T07:56:38.743Z,13.10
2019-03-31T07:59:09.939Z,13.10
2019-03-31T08:01:41.266Z,13.20
2019-03-31T08:04:11.741Z,13.20
2019-03-31T08:06:42.165Z,13.20
2019-03-31T08:09:13.302Z,13.20
2019-03-31T08:11:43.733Z,13.20
2019-03-31T08:14:14.462Z,13.20
2019-03-31T08:16:45.545Z,13.30
2019-03-31T08:19:15.873Z,13.40
2019-03-31T08:21:46.534Z,13.40
2019-03-31T08:24:17.187Z,13.40
2019-03-31T08:26:47.528Z,13.50
2019-03-31T08:29:19.073Z,13.60
2019-03-31T08:31:50.166Z,13.60
2019-03-31T08:34:21.714Z,13.70
2019-03-31T08:36:53.441Z,13.70
2019-03-31T08:39:24.288Z,13.70
2019-03-31T08:41:54.914Z,13.70
2019-03-31T08:44:25.349Z,13.70
2019-03-31T08:46:56.256Z,13.70
2019-03-31T08:49:28.347Z,13.80
2019-03-31T08:52:00.551Z,13.80
2019-03-31T08:54:31.334Z,13.70
2019-03-31T08:57:02.627Z,13.70
2019-03-31T08:59:35.197Z,13.70
2019-03-31T09:02:26.690Z,13.60
2019-03-31T09:04:58.253Z,13.60
2019-03-31T09:07:29.308Z,13.60
2019-03-31T09:10:00.059Z,13.60
2019-03-31T09:12:31.562Z,13.60
2019-03-31T09:15:02.653Z,13.60
2019-03-31T09:17:34.691Z,13.70
2019-03-31T09:20:08.501Z,13.90
2019-03-31T09:22:56.232Z,14.00
2019-03-31T09:25:26.836Z,14.10
2019-03-31T09:27:58.072Z,14.00
2019-03-31T09:30:28.814Z,13.90
2019-03-31T09:33:03.796Z,13.90
2019-03-31T09:35:34.688Z,14.00
2019-03-31T09:38:05.862Z,14.10
2019-03-31T09:40:37.218Z,14.10
2019-03-31T09:43:07.611Z,14.10
2019-03-31T09:45:38.555Z,14.00
2019-03-31T09:48:09.770Z,13.90
2019-03-31T09:50:40.228Z,13.90
2019-03-31T09:53:10.590Z,13.80
2019-03-31T09:55:41.264Z,13.70
2019-03-31T09:58:12.209Z,13.70
2019-03-31T10:00:44.084Z,13.70
2019-03-31T10:03:15.030Z,13.60
2019-03-31T10:05:47.933Z,13.60
2019-03-31T10:08:21.566Z,13.60
2019-03-31T10:10:54.236Z,13.70
2019-03-31T10:13:27.658Z,13.80
2019-03-31T10:15:59.893Z,14.20
2019-03-31T10:18:41.625Z,14.40
2019-03-31T10:21:14.753Z,14.40
2019-03-31T10:23:49.937Z,14.40
2019-03-31T10:26:31.926Z,14.30
2019-03-31T10:28:57.036Z,14.30
2019-03-31T10:31:28.210Z,14.20
2019-03-31T10:33:58.984Z,14.10
2019-03-31T10:36:43.796Z,14.10
2019-03-31T10:39:05.500Z,14.10
2019-03-31T10:41:36.015Z,14.20
2019-03-31T10:44:07.481Z,14.10
2019-03-31T10:46:38.535Z,14.10
2019-03-31T10:49:08.932Z,14.00
2019-03-31T10:51:39.438Z,13.90
2019-03-31T10:54:10.126Z,13.80
2019-03-31T10:56:40.559Z,13.80
2019-03-31T10:59:10.941Z,13.70
2019-03-31T11:01:41.613Z,13.70
2019-03-31T11:04:11.996Z,13.60
2019-03-31T11:06:42.677Z,13.60
2019-03-31T11:09:13.053Z,13.60
2019-03-31T11:11:44.634Z,13.70
2019-03-31T11:14:14.939Z,13.70
2019-03-31T11:16:45.770Z,13.70
2019-03-31T11:19:16.085Z,13.70
2019-03-31T11:22:09.119Z,13.70
2019-03-31T11:24:39.502Z,13.70
2019-03-31T11:27:11.043Z,13.70
2019-03-31T11:29:41.389Z,13.60
2019-03-31T11:32:11.772Z,13.60
2019-03-31T11:34:42.359Z,13.50
2019-03-31T11:37:14.071Z,13.60
2019-03-31T11:39:45.052Z,13.60
2019-03-31T11:42:15.746Z,13.70
2019-03-31T11:44:46.047Z,13.80
2019-03-31T11:47:16.508Z,13.70
2019-03-31T11:49:46.758Z,13.70
2019-03-31T11:52:17.478Z,13.70
2019-03-31T11:54:47.833Z,13.70
2019-03-31T11:57:18.182Z,13.60
2019-03-31T11:59:49.822Z,13.50
2019-03-31T12:02:26.929Z,13.60
2019-03-31T12:04:53.242Z,13.60
2019-03-31T12:07:28.278Z,13.80
2019-03-31T12:09:56.516Z,13.90
2019-03-31T12:12:27.229Z,13.90
2019-03-31T12:15:00.554Z,13.80
2019-03-31T12:17:29.866Z,13.80
2019-03-31T12:20:00.380Z,13.70
2019-03-31T12:22:31.263Z,13.70
2019-03-31T12:25:02.169Z,13.60
2019-03-31T12:27:32.506Z,13.60
2019-03-31T12:30:03.051Z,13.60
2019-03-31T12:32:38.057Z,13.70
2019-03-31T12:35:07.015Z,13.70
2019-03-31T12:37:42.665Z,13.60
2019-03-31T12:40:15.197Z,13.60
2019-03-31T12:42:44.726Z,13.60
2019-03-31T12:45:15.442Z,13.50
2019-03-31T12:47:46.307Z,13.50
2019-03-31T12:50:16.965Z,13.60
2019-03-31T12:52:51.096Z,13.70
2019-03-31T12:55:20.704Z,13.80
2019-03-31T12:57:52.056Z,13.70
2019-03-31T13:00:24.616Z,13.70
2019-03-31T13:02:54.890Z,13.70
2019-03-31T13:05:26.142Z,13.70
2019-03-31T13:07:57.070Z,13.70
2019-03-31T13:10:28.238Z,13.70
2019-03-31T13:13:01.840Z,13.80
2019-03-31T13:15:33.040Z,13.80
2019-03-31T13:18:03.644Z,13.80
2019-03-31T13:20:34.117Z,13.80
2019-03-31T13:23:06.199Z,13.80
2019-03-31T13:25:37.550Z,13.80
2019-03-31T13:28:08.024Z,13.70
2019-03-31T13:30:38.802Z,13.70
2019-03-31T13:33:09.160Z,13.70
2019-03-31T13:35:40.368Z,13.70
2019-03-31T13:38:11.700Z,13.60
2019-03-31T13:40:43.252Z,13.60
2019-03-31T13:43:13.965Z,13.50
2019-03-31T13:45:45.044Z,13.50
2019-03-31T13:48:15.769Z,13.60
2019-03-31T13:50:46.582Z,13.70
2019-03-31T13:53:17.232Z,13.70
2019-03-31T13:55:47.674Z,13.70
2019-03-31T13:58:19.465Z,13.70
2019-03-31T14:00:50.430Z,13.70
2019-03-31T14:03:21.142Z,13.60
2019-03-31T14:05:52.507Z,13.70
2019-03-31T14:08:26.082Z,13.70
2019-03-31T14:10:55.845Z,13.60
2019-03-31T14:13:26.506Z,13.60
2019-03-31T14:15:57.114Z,13.60
2019-03-31T14:18:27.684Z,13.60
2019-03-31T14:20:58.381Z,13.60
2019-03-31T14:23:29.630Z,13.60
2019-03-31T14:26:00.525Z,13.60
2019-03-31T14:28:31.248Z,13.60
2019-03-31T14:31:02.765Z,13.60
2019-03-31T14:33:33.293Z,13.60
2019-03-31T14:36:04.301Z,13.60
2019-03-31T14:38:40.252Z,13.60
2019-03-31T14:41:07.977Z,13.60
2019-03-31T15:32:23.695Z,13.60
2019-03-31T15:34:54.914Z,13.60
2019-03-31T15:37:25.613Z,13.60
2019-03-31T15:39:56.565Z,13.60
2019-03-31T15:42:26.910Z,13.70
2019-03-31T15:44:57.327Z,13.70
2019-03-31T15:47:27.882Z,13.70
2019-03-31T15:49:58.720Z,13.80
2019-03-31T15:52:29.742Z,13.80
2019-03-31T15:55:05.511Z,13.80
2019-03-31T15:57:41.359Z,13.80
2019-03-31T16:00:12.546Z,13.70
2019-03-31T16:02:43.737Z,13.70
2019-03-31T16:05:14.518Z,13.70
2019-03-31T16:07:45.757Z,13.70
2019-03-31T16:10:16.574Z,13.70
2019-03-31T16:12:46.673Z,13.70
2019-03-31T16:15:16.921Z,13.80
2019-03-31T16:17:47.171Z,13.80
2019-03-31T16:20:17.325Z,13.80
2019-03-31T16:22:47.456Z,13.80
2019-03-31T16:25:23.149Z,13.80
2019-03-31T16:27:53.742Z,13.70
2019-03-31T16:30:23.843Z,13.70
2019-03-31T16:32:53.973Z,13.70
2019-03-31T16:35:25.471Z,13.70
2019-03-31T16:37:55.555Z,13.70
2019-03-31T16:40:26.062Z,13.70
2019-03-31T16:42:56.318Z,13.70
2019-03-31T16:45:26.424Z,13.70
2019-03-31T16:47:56.524Z,13.70
2019-03-31T16:50:27.013Z,13.70
2019-03-31T16:52:57.650Z,13.70
2019-03-31T16:55:28.107Z,13.70
2019-03-31T16:57:58.313Z,13.70
2019-03-31T17:00:29.776Z,13.70
2019-03-31T17:03:00.412Z,13.70
2019-03-31T17:05:31.513Z,13.60
2019-03-31T17:08:01.698Z,13.70
2019-03-31T17:10:32.290Z,13.70
2019-03-31T17:13:02.799Z,13.70
2019-03-31T17:15:32.829Z,13.70
2019-03-31T17:18:05.055Z,13.80
2019-03-31T17:20:35.630Z,13.80
2019-03-31T17:23:05.743Z,13.80
2019-03-31T17:25:36.330Z,13.80
2019-03-31T17:28:10.336Z,13.80
2019-03-31T17:30:41.300Z,13.80
2019-03-31T17:33:11.473Z,13.80
2019-03-31T17:35:41.688Z,13.80
2019-03-31T17:38:12.031Z,13.80
2019-03-31T17:40:42.242Z,13.80
2019-03-31T17:43:12.686Z,13.80
2019-03-31T17:45:43.269Z,13.80
2019-03-31T17:48:13.365Z,13.80
2019-03-31T17:50:43.513Z,13.80
2019-03-31T17:53:13.976Z,13.90
2019-03-31T17:55:44.088Z,13.90
2019-03-31T17:58:14.768Z,13.90
2019-03-31T18:00:44.931Z,13.90
2019-03-31T18:03:15.729Z,13.90
2019-03-31T18:05:47.299Z,13.90
2019-03-31T18:08:17.431Z,13.90
2019-03-31T18:10:47.496Z,13.90
2019-03-31T18:13:17.716Z,13.90
2019-03-31T18:15:48.127Z,13.90
2019-03-31T18:18:18.857Z,13.80
2019-03-31T18:20:49.973Z,13.80
2019-03-31T18:23:20.796Z,13.80
2019-03-31T18:25:51.407Z,13.90
2019-03-31T18:28:25.423Z,13.90
2019-03-31T18:30:56.789Z,13.90
2019-03-31T18:33:27.052Z,13.90
2019-03-31T18:35:57.674Z,13.90
2019-03-31T18:38:28.149Z,13.90
2019-03-31T18:40:59.662Z,13.90
2019-03-31T18:43:29.881Z,13.90
2019-03-31T18:46:00.163Z,13.90
2019-03-31T18:48:30.690Z,13.90
2019-03-31T18:51:01.223Z,13.90
2019-03-31T18:53:54.599Z,13.90
2019-03-31T18:56:50.266Z,13.90
2019-03-31T18:59:39.834Z,13.90
2019-03-31T19:02:47.398Z,13.90
2019-03-31T19:05:36.792Z,13.90
2019-03-31T19:08:35.256Z,14.00
2019-03-31T19:11:28.915Z,14.00
2019-03-31T19:14:17.001Z,14.00
2019-03-31T19:17:21.248Z,14.00
2019-03-31T19:20:10.788Z,14.00
2019-03-31T19:22:59.460Z,14.10
2019-03-31T19:25:40.763Z,14.00
2019-03-31T19:28:33.698Z,14.10
2019-03-31T19:31:21.721Z,14.10
2019-03-31T19:34:26.012Z,14.10
2019-03-31T19:37:18.071Z,14.10
2019-03-31T19:40:22.671Z,14.10
2019-03-31T19:43:00.605Z,14.10
2019-03-31T19:45:40.724Z,14.10
2019-03-31T19:48:36.145Z,14.10
2019-03-31T19:51:26.390Z,14.10
2019-03-31T19:54:05.822Z,14.10
2019-03-31T19:57:04.602Z,14.20
2019-03-31T19:59:52.756Z,14.20
2019-03-31T20:02:41.007Z,14.20
2019-03-31T20:05:36.697Z,14.20
2019-03-31T20:08:24.775Z,14.20
2019-03-31T20:11:14.031Z,14.20
2019-03-31T20:14:06.831Z,14.20
2019-03-31T20:17:15.275Z,14.20
2019-03-31T20:20:05.098Z,14.20
2019-03-31T20:22:52.868Z,14.20
2019-03-31T20:25:51.030Z,14.30
2019-03-31T20:28:27.771Z,14.20
2019-03-31T20:31:23.159Z,14.30
2019-03-31T20:34:02.512Z,14.30
2019-03-31T20:36:52.103Z,14.20
2019-03-31T20:39:55.813Z,14.20
2019-03-31T20:42:38.644Z,14.20
2019-03-31T20:45:08.964Z,14.10
2019-03-31T20:47:40.150Z,14.00
2019-03-31T20:50:11.074Z,13.90
2019-03-31T20:52:41.211Z,13.80
2019-03-31T20:55:16.698Z,13.70
2019-03-31T20:57:43.572Z,13.60
2019-03-31T21:00:13.859Z,13.50
2019-03-31T21:02:44.418Z,13.40
2019-03-31T21:05:14.414Z,13.40
2019-03-31T21:07:44.822Z,13.30
2019-03-31T21:10:15.716Z,13.20
2019-03-31T21:12:46.079Z,13.10
2019-03-31T21:15:16.101Z,13.10
2019-03-31T21:17:46.342Z,13.00
2019-03-31T21:20:16.337Z,13.00
2019-03-31T21:22:46.365Z,13.00
2019-03-31T21:25:17.397Z,12.90
2019-03-31T21:27:47.832Z,12.90
2019-03-31T21:30:18.766Z,12.90
2019-03-31T21:32:48.791Z,12.90
2019-03-31T21:35:19.328Z,12.90
2019-03-31T21:37:49.403Z,12.90
2019-03-31T21:40:19.424Z,13.00
2019-03-31T21:42:49.460Z,13.10
2019-03-31T21:45:20.435Z,13.10
2019-03-31T21:47:50.529Z,13.20
2019-03-31T21:50:20.944Z,13.30
2019-03-31T21:52:51.030Z,13.30
2019-03-31T21:55:20.993Z,13.40
2019-03-31T21:57:50.997Z,13.40
2019-03-31T22:00:26.205Z,13.50
2019-03-31T22:02:57.797Z,13.50
2019-03-31T22:05:27.743Z,13.60
2019-03-31T22:07:59.332Z,13.70
2019-03-31T22:10:29.324Z,13.70
2019-03-31T22:12:59.823Z,13.60
2019-03-31T22:15:29.807Z,13.70
2019-03-31T22:17:59.900Z,13.70
2019-03-31T22:20:30.234Z,13.70
2019-03-31T22:23:00.281Z,13.70
2019-03-31T22:25:30.684Z,13.70
2019-03-31T22:28:01.444Z,13.70
2019-03-31T22:30:32.957Z,13.70
2019-03-31T22:33:03.124Z,13.70
2019-03-31T22:35:35.076Z,13.70
2019-03-31T22:38:05.543Z,13.70
2019-03-31T22:40:35.636Z,13.70
2019-03-31T22:43:07.969Z,13.70
2019-03-31T22:45:38.618Z,13.70
2019-03-31T22:48:08.603Z,13.70
2019-03-31T22:50:39.360Z,13.80
2019-03-31T22:53:09.671Z,13.80
2019-03-31T22:55:40.018Z,13.80
2019-03-31T22:58:10.378Z,13.80
2019-03-31T23:00:40.770Z,13.80
2019-03-31T23:03:12.425Z,13.80
2019-03-31T23:05:42.499Z,13.80
2019-03-31T23:08:13.282Z,13.80
2019-03-31T23:10:43.774Z,13.80
2019-03-31T23:13:14.080Z,13.80
2019-03-31T23:15:44.663Z,13.80
2019-03-31T23:18:14.624Z,13.80
2019-03-31T23:20:44.966Z,13.80
2019-03-31T23:23:14.989Z,13.80
2019-03-31T23:25:45.448Z,13.80
2019-03-31T23:28:15.897Z,13.80
2019-03-31T23:30:46.932Z,13.80
2019-03-31T23:33:17.402Z,13.80
2019-03-31T23:35:48.179Z,13.80
2019-03-31T23:38:18.175Z,13.70
2019-03-31T23:40:48.221Z,13.70
2019-03-31T23:43:18.716Z,13.70
2019-03-31T23:45:49.164Z,13.70
2019-03-31T23:48:20.241Z,13.70
2019-03-31T23:50:50.261Z,13.70
2019-03-31T23:53:20.290Z,13.70
2019-03-31T23:55:50.259Z,13.70
2019-03-31T23:58:20.590Z,13.70
